createdAt,value
2022-09-16T00:00:05.532Z,11.56
2022-09-16T00:02:54.756Z,11.51
2022-09-16T00:05:43.204Z,11.46
2022-09-16T00:08:28.240Z,11.42
2022-09-16T00:11:13.575Z,11.36
2022-09-16T00:13:58.957Z,11.29
2022-09-16T00:16:44.826Z,11.27
2022-09-16T00:19:29.945Z,11.27
2022-09-16T00:22:15.249Z,11.23
2022-09-16T00:25:00.557Z,11.25
2022-09-16T00:27:47.496Z,11.29
2022-09-16T00:30:32.545Z,11.34
2022-09-16T00:33:18.739Z,11.37
2022-09-16T00:36:04.935Z,11.40
2022-09-16T00:38:51.084Z,11.37
2022-09-16T00:41:37.625Z,11.39
2022-09-16T00:44:41.792Z,11.41
2022-09-16T00:47:32.989Z,11.40
2022-09-16T00:50:30.392Z,11.47
2022-09-16T00:53:17.624Z,11.54
2022-09-16T00:56:05.410Z,11.54
2022-09-16T00:58:56.592Z,11.65
2022-09-16T01:01:44.680Z,11.67
2022-09-16T01:04:32.658Z,11.65
2022-09-16T01:07:23.911Z,11.71
2022-09-16T01:10:09.208Z,11.73
2022-09-16T01:12:55.425Z,11.77
2022-09-16T01:15:53.587Z,11.77
2022-09-16T01:18:42.924Z,11.64
2022-09-16T01:21:40.888Z,11.73
2022-09-16T01:24:29.250Z,11.72
2022-09-16T01:27:24.437Z,11.71
2022-09-16T01:30:18.754Z,11.62
2022-09-16T01:33:04.785Z,11.50
2022-09-16T01:35:56.241Z,11.38
2022-09-16T01:38:54.534Z,11.37
2022-09-16T01:41:48.709Z,11.37
2022-09-16T01:44:33.764Z,11.44
2022-09-16T01:47:37.821Z,11.47
2022-09-16T01:50:26.318Z,11.50
2022-09-16T01:53:19.285Z,11.47
2022-09-16T01:56:20.295Z,11.48
2022-09-16T01:59:09.595Z,11.44
2022-09-16T02:02:03.084Z,11.40
2022-09-16T02:04:51.075Z,11.44
2022-09-16T02:07:39.586Z,11.43
2022-09-16T02:10:28.593Z,11.31
2022-09-16T02:13:23.285Z,11.26
2022-09-16T02:16:11.227Z,11.16
2022-09-16T02:19:02.041Z,11.11
2022-09-16T02:21:47.496Z,11.11
2022-09-16T02:24:33.708Z,11.13
2022-09-16T02:27:20.979Z,11.10
2022-09-16T02:30:08.690Z,11.18
2022-09-16T02:32:57.999Z,11.21
2022-09-16T02:35:44.609Z,11.23
2022-09-16T02:38:34.104Z,11.28
2022-09-16T02:41:19.508Z,11.28
2022-09-16T02:44:05.491Z,11.34
2022-09-16T02:47:10.480Z,11.43
2022-09-16T02:49:57.617Z,11.42
2022-09-16T02:52:50.816Z,11.39
2022-09-16T02:55:46.314Z,11.38
2022-09-16T02:58:31.781Z,11.39
2022-09-16T03:01:17.686Z,11.33
2022-09-16T03:04:04.413Z,11.34
2022-09-16T03:06:49.915Z,11.38
2022-09-16T03:09:37.415Z,11.35
2022-09-16T03:12:38.477Z,11.38
2022-09-16T03:15:33.133Z,11.30
2022-09-16T03:18:32.882Z,11.25
2022-09-16T03:21:24.603Z,11.24
2022-09-16T03:24:12.474Z,11.35
2022-09-16T03:27:03.887Z,11.40
2022-09-16T03:29:52.737Z,11.41
2022-09-16T03:32:41.549Z,11.42
2022-09-16T03:35:29.463Z,11.39
2022-09-16T03:38:16.581Z,11.38
2022-09-16T03:41:03.325Z,11.38
2022-09-16T03:43:55.083Z,11.32
2022-09-16T03:46:41.538Z,11.20
2022-09-16T03:49:26.948Z,11.07
2022-09-16T03:52:12.337Z,11.00
2022-09-16T03:54:57.609Z,10.97
2022-09-16T03:57:42.624Z,10.87
2022-09-16T04:00:29.091Z,10.91
2022-09-16T04:03:14.364Z,11.00
2022-09-16T04:05:59.725Z,10.94
2022-09-16T04:08:45.112Z,10.87
2022-09-16T04:11:32.008Z,10.95
2022-09-16T04:14:17.224Z,10.95
2022-09-16T04:17:02.588Z,10.76
2022-09-16T04:19:47.635Z,10.74
2022-09-16T04:22:33.030Z,10.78
2022-09-16T04:25:18.627Z,10.81
2022-09-16T04:28:03.658Z,10.79
2022-09-16T04:30:48.923Z,10.77
2022-09-16T04:33:35.083Z,10.78
2022-09-16T04:36:20.617Z,10.88
2022-09-16T04:39:06.183Z,10.77
2022-09-16T04:41:51.305Z,10.79
2022-09-16T04:44:36.292Z,10.77
2022-09-16T04:47:22.699Z,10.76
2022-09-16T04:50:08.765Z,10.81
2022-09-16T04:52:54.275Z,10.84
2022-09-16T04:55:39.516Z,10.89
2022-09-16T04:58:24.839Z,10.88
2022-09-16T05:01:14.018Z,10.94
2022-09-16T05:04:00.256Z,10.93
2022-09-16T05:06:45.271Z,10.82
2022-09-16T05:09:30.437Z,10.84
2022-09-16T05:12:15.923Z,10.82
2022-09-16T05:15:01.347Z,10.94
2022-09-16T05:17:51.175Z,11.00
2022-09-16T05:20:37.508Z,11.17
2022-09-16T05:23:23.131Z,11.24
2022-09-16T05:26:10.501Z,11.35
2022-09-16T05:28:55.646Z,11.30
2022-09-16T05:31:41.787Z,11.22
2022-09-16T05:34:28.594Z,11.09
2022-09-16T05:37:13.919Z,11.05
2022-09-16T05:39:59.155Z,10.88
2022-09-16T05:42:44.230Z,10.91
2022-09-16T05:45:32.366Z,10.88
2022-09-16T05:48:18.037Z,10.87
2022-09-16T05:51:04.826Z,10.94
2022-09-16T05:53:52.396Z,11.05
2022-09-16T05:56:37.535Z,11.05
2022-09-16T05:59:24.029Z,11.16
2022-09-16T06:02:09.620Z,11.32
2022-09-16T06:04:54.740Z,11.31
2022-09-16T06:07:39.722Z,11.38
2022-09-16T06:10:25.204Z,11.53
2022-09-16T06:13:10.549Z,11.60
2022-09-16T06:15:56.186Z,11.73
2022-09-16T06:18:41.744Z,11.87
2022-09-16T06:21:27.675Z,11.95
2022-09-16T06:24:13.863Z,11.98
2022-09-16T06:26:59.036Z,12.21
2022-09-16T06:29:44.127Z,12.31
2022-09-16T06:32:32.415Z,12.54
2022-09-16T06:35:17.527Z,12.54
2022-09-16T06:38:03.688Z,12.75
2022-09-16T06:40:50.360Z,13.01
2022-09-16T06:43:35.704Z,13.09
2022-09-16T06:46:22.804Z,13.09
2022-09-16T06:49:10.833Z,13.46
2022-09-16T06:51:56.215Z,13.51
2022-09-16T06:54:41.920Z,13.50
2022-09-16T06:57:27.180Z,13.76
2022-09-16T07:00:14.181Z,13.92
2022-09-16T07:03:01.830Z,14.26
2022-09-16T07:05:57.755Z,14.62
2022-09-16T07:08:43.519Z,14.71
2022-09-16T07:11:28.809Z,15.19
2022-09-16T07:14:14.332Z,14.98
2022-09-16T07:17:00.518Z,15.61
2022-09-16T07:19:45.931Z,15.96
2022-09-16T07:22:32.209Z,15.78
2022-09-16T07:25:17.344Z,15.93
2022-09-16T07:28:03.359Z,16.56
2022-09-16T07:30:48.809Z,16.96
2022-09-16T07:33:38.206Z,16.65
2022-09-16T07:36:27.862Z,16.56
2022-09-16T07:39:14.606Z,16.27
2022-09-16T07:42:05.905Z,16.94
2022-09-16T07:44:51.693Z,17.79
2022-09-16T07:47:36.998Z,18.04
2022-09-16T07:50:22.270Z,17.43
2022-09-16T07:53:07.686Z,17.58
2022-09-16T07:55:53.603Z,17.91
2022-09-16T07:58:39.183Z,19.52
2022-09-16T08:01:24.999Z,19.23
2022-09-16T08:04:10.376Z,19.75
2022-09-16T08:06:55.555Z,20.22
2022-09-16T08:09:45.166Z,19.85
2022-09-16T08:12:35.585Z,19.85
2022-09-16T08:15:21.091Z,20.03
2022-09-16T08:18:06.388Z,20.34
2022-09-16T08:20:51.613Z,21.30
2022-09-16T08:23:37.147Z,20.33
2022-09-16T08:26:22.986Z,20.83
2022-09-16T08:29:09.830Z,20.66
2022-09-16T08:31:55.105Z,21.90
2022-09-16T08:34:40.511Z,21.40
2022-09-16T08:37:25.684Z,21.68
2022-09-16T08:40:15.169Z,22.19
2022-09-16T08:43:08.345Z,23.39
2022-09-16T08:46:09.542Z,23.66
2022-09-16T08:49:15.986Z,24.41
2022-09-16T08:52:03.116Z,24.84
2022-09-16T08:54:51.504Z,24.61
2022-09-16T08:57:40.003Z,23.59
2022-09-16T09:00:25.031Z,23.21
2022-09-16T09:03:17.350Z,24.09
2022-09-16T09:06:04.689Z,25.63
2022-09-16T09:08:55.821Z,25.98
2022-09-16T09:12:05.247Z,24.17
2022-09-16T09:14:50.558Z,23.27
2022-09-16T09:17:51.382Z,24.18
2022-09-16T09:20:36.377Z,23.63
2022-09-16T09:23:27.887Z,24.14
2022-09-16T09:26:18.762Z,26.38
2022-09-16T09:29:12.120Z,25.75
2022-09-16T09:31:57.252Z,25.12
2022-09-16T09:34:42.711Z,24.50
2022-09-16T09:37:44.009Z,23.70
2022-09-16T09:40:58.720Z,25.75
2022-09-16T09:43:51.764Z,24.09
2022-09-16T09:46:40.131Z,22.97
2022-09-16T09:49:33.826Z,23.35
2022-09-16T09:52:22.895Z,20.88
2022-09-16T09:55:16.455Z,20.07
2022-09-16T09:58:02.083Z,19.51
2022-09-16T10:00:48.006Z,19.66
2022-09-16T10:03:33.126Z,21.99
2022-09-16T10:06:22.531Z,25.15
2022-09-16T10:09:12.865Z,26.31
2022-09-16T10:11:57.924Z,26.38
2022-09-16T10:14:46.120Z,26.61
2022-09-16T10:17:32.271Z,25.79
2022-09-16T10:20:24.556Z,23.47
2022-09-16T10:23:14.512Z,21.29
2022-09-16T10:26:18.441Z,21.01
2022-09-16T10:29:13.445Z,19.66
2022-09-16T10:32:04.073Z,18.46
2022-09-16T10:34:49.744Z,18.44
2022-09-16T10:37:36.451Z,19.24
2022-09-16T10:40:23.926Z,19.32
2022-09-16T10:43:14.507Z,19.50
2022-09-16T10:46:00.333Z,22.69
2022-09-16T10:48:46.662Z,26.18
2022-09-16T10:51:33.368Z,28.54
2022-09-16T10:54:23.829Z,23.16
2022-09-16T10:57:20.827Z,23.84
2022-09-16T11:00:19.834Z,24.55
2022-09-16T11:03:23.900Z,25.60
2022-09-16T11:06:24.677Z,22.09
2022-09-16T11:09:09.671Z,20.50
2022-09-16T11:12:14.580Z,24.89
2022-09-16T11:15:19.174Z,23.03
2022-09-16T11:18:22.762Z,24.07
2022-09-16T11:21:07.784Z,24.82
2022-09-16T11:24:10.046Z,25.00
2022-09-16T11:27:01.880Z,26.76
2022-09-16T11:30:05.664Z,28.71
2022-09-16T11:33:09.675Z,27.58
2022-09-16T11:36:03.861Z,25.17
2022-09-16T11:39:09.025Z,22.31
2022-09-16T11:41:59.954Z,23.26
2022-09-16T11:44:48.061Z,22.13
2022-09-16T11:47:46.081Z,20.83
2022-09-16T11:50:41.415Z,19.45
2022-09-16T11:53:38.316Z,18.18
2022-09-16T11:56:35.176Z,16.28
2022-09-16T11:59:38.851Z,15.64
2022-09-16T12:02:27.250Z,14.49
2022-09-16T12:05:21.445Z,14.32
2022-09-16T12:08:12.334Z,14.49
2022-09-16T12:11:00.500Z,14.70
2022-09-16T12:13:49.198Z,15.01
2022-09-16T12:16:40.885Z,14.74
2022-09-16T12:19:32.061Z,14.76
2022-09-16T12:22:31.209Z,15.61
2022-09-16T12:25:25.110Z,19.88
2022-09-16T12:28:17.477Z,24.00
2022-09-16T12:31:25.159Z,27.45
2022-09-16T12:34:28.166Z,28.21
2022-09-16T12:37:18.954Z,29.98
2022-09-16T12:40:04.989Z,25.01
2022-09-16T12:42:56.480Z,22.04
2022-09-16T12:46:00.287Z,19.99
2022-09-16T12:49:04.045Z,18.34
2022-09-16T12:52:01.038Z,17.47
2022-09-16T12:55:07.242Z,16.15
2022-09-16T12:58:07.435Z,16.38
2022-09-16T13:00:58.646Z,16.94
2022-09-16T13:03:58.082Z,20.81
2022-09-16T13:06:55.886Z,23.45
2022-09-16T13:09:41.507Z,27.17
2022-09-16T13:12:44.882Z,25.43
2022-09-16T13:15:34.391Z,20.88
2022-09-16T13:18:37.366Z,18.82
2022-09-16T13:21:27.604Z,17.19
2022-09-16T13:24:21.457Z,16.87
2022-09-16T13:27:27.479Z,17.30
2022-09-16T13:30:14.254Z,17.54
2022-09-16T13:33:01.147Z,19.36
2022-09-16T13:35:49.438Z,20.11
2022-09-16T13:38:36.684Z,21.60
2022-09-16T13:41:35.997Z,25.12
2022-09-16T13:44:39.664Z,26.33
2022-09-16T13:47:34.179Z,27.12
2022-09-16T13:50:22.773Z,25.77
2022-09-16T13:53:26.364Z,27.44
2022-09-16T13:56:30.396Z,26.45
2022-09-16T13:59:18.262Z,25.70
2022-09-16T14:02:13.086Z,27.48
2022-09-16T14:05:17.238Z,26.55
2022-09-16T14:08:08.415Z,23.28
2022-09-16T14:11:01.912Z,22.87
2022-09-16T14:14:04.845Z,22.80
2022-09-16T14:16:52.929Z,21.04
2022-09-16T14:19:38.704Z,20.63
2022-09-16T14:22:26.778Z,19.83
2022-09-16T14:25:32.282Z,18.79
2022-09-16T14:28:25.124Z,17.61
2022-09-16T14:31:14.550Z,17.14
2022-09-16T14:34:04.342Z,16.19
2022-09-16T14:36:49.837Z,15.93
2022-09-16T14:39:44.474Z,15.43
2022-09-16T14:42:30.294Z,15.38
2022-09-16T14:45:16.916Z,15.61
2022-09-16T14:48:05.664Z,15.83
2022-09-16T14:50:50.960Z,15.82
2022-09-16T14:53:38.389Z,15.76
2022-09-16T14:56:24.074Z,15.97
2022-09-16T14:59:13.870Z,15.72
2022-09-16T15:02:03.894Z,15.54
2022-09-16T15:04:52.369Z,15.26
2022-09-16T15:07:56.287Z,14.89
2022-09-16T15:10:52.381Z,14.87
2022-09-16T15:13:39.208Z,14.50
2022-09-16T15:16:24.831Z,14.37
2022-09-16T15:19:16.724Z,14.19
2022-09-16T15:22:02.539Z,13.89
2022-09-16T15:24:50.304Z,13.83
2022-09-16T15:27:35.651Z,13.58
2022-09-16T15:30:22.570Z,13.37
2022-09-16T15:33:22.945Z,13.48
2022-09-16T15:36:31.045Z,13.17
2022-09-16T15:39:29.697Z,13.06
2022-09-16T15:42:18.905Z,13.00
2022-09-16T15:45:12.256Z,12.82
2022-09-16T15:48:00.127Z,12.56
2022-09-16T15:50:51.406Z,12.62
2022-09-16T15:53:44.950Z,12.45
2022-09-16T15:56:30.079Z,12.03
2022-09-16T15:59:25.739Z,12.09
